createdAt,value
2022-10-26T00:01:21.542Z,83.01
2022-10-26T00:03:49.362Z,82.95
2022-10-26T00:06:18.853Z,82.84
2022-10-26T00:08:48.855Z,82.93
2022-10-26T00:11:16.853Z,82.93
2022-10-26T00:13:44.952Z,82.95
2022-10-26T00:16:15.246Z,82.90
2022-10-26T00:18:43.099Z,82.88
2022-10-26T00:21:11.706Z,82.91
2022-10-26T00:23:39.566Z,82.75
2022-10-26T00:26:09.345Z,82.90
2022-10-26T00:28:37.460Z,82.76
2022-10-26T00:31:08.469Z,82.35
2022-10-26T00:33:36.560Z,82.73
2022-10-26T00:36:04.553Z,82.53
2022-10-26T00:38:32.225Z,82.15
2022-10-26T00:40:59.961Z,81.79
2022-10-26T00:43:36.971Z,82.38
2022-10-26T00:46:07.471Z,82.28
2022-10-26T00:48:38.197Z,81.92
2022-10-26T00:51:10.098Z,82.20
2022-10-26T00:53:38.743Z,81.97
2022-10-26T00:56:07.231Z,82.07
2022-10-26T00:58:36.878Z,81.97
2022-10-26T01:01:04.792Z,81.98
2022-10-26T01:03:33.099Z,82.13
2022-10-26T01:06:00.891Z,82.02
2022-10-26T01:08:29.034Z,81.54
2022-10-26T01:10:58.462Z,80.79
2022-10-26T01:13:28.136Z,80.93
2022-10-26T01:16:04.778Z,80.98
2022-10-26T01:18:40.660Z,81.27
2022-10-26T01:21:41.982Z,81.58
2022-10-26T01:24:33.514Z,81.18
2022-10-26T01:27:20.055Z,80.98
2022-10-26T01:30:22.494Z,80.98
2022-10-26T01:33:04.423Z,80.79
2022-10-26T01:35:34.458Z,81.19
2022-10-26T01:38:07.344Z,81.54
2022-10-26T01:40:37.544Z,81.69
2022-10-26T01:43:08.189Z,82.14
2022-10-26T01:45:38.965Z,82.11
2022-10-26T01:48:08.040Z,81.55
2022-10-26T01:50:36.584Z,81.31
2022-10-26T01:53:04.322Z,81.60
2022-10-26T01:55:45.649Z,81.13
2022-10-26T01:58:22.467Z,81.49
2022-10-26T02:00:58.855Z,81.51
2022-10-26T02:03:31.841Z,81.70
2022-10-26T02:06:06.621Z,81.47
2022-10-26T02:08:53.349Z,81.29
2022-10-26T02:11:27.132Z,81.54
2022-10-26T02:13:57.512Z,81.45
2022-10-26T02:16:31.961Z,81.26
2022-10-26T02:19:04.576Z,81.33
2022-10-26T02:21:37.108Z,81.17
2022-10-26T02:26:41.423Z,81.72
2022-10-26T02:29:12.228Z,81.87
2022-10-26T02:31:41.654Z,81.75
2022-10-26T02:34:11.616Z,81.80
2022-10-26T02:36:43.585Z,81.30
2022-10-26T02:39:12.399Z,81.48
2022-10-26T02:41:41.062Z,81.09
2022-10-26T02:44:15.117Z,81.20
2022-10-26T02:46:44.690Z,81.73
2022-10-26T02:49:12.699Z,81.77
2022-10-26T02:51:43.284Z,81.96
2022-10-26T02:54:15.582Z,82.01
2022-10-26T02:56:45.785Z,82.09
2022-10-26T02:59:15.604Z,81.86
2022-10-26T03:01:45.480Z,81.40
2022-10-26T03:04:13.248Z,81.51
2022-10-26T03:06:40.980Z,81.35
2022-10-26T03:09:08.708Z,81.69
2022-10-26T03:11:36.420Z,81.79
2022-10-26T03:14:04.332Z,81.65
2022-10-26T03:16:32.066Z,81.58
2022-10-26T03:19:01.097Z,81.34
2022-10-26T03:21:28.838Z,81.21
2022-10-26T03:23:56.573Z,81.25
2022-10-26T03:26:24.274Z,80.88
2022-10-26T03:28:51.980Z,80.95
2022-10-26T03:31:19.668Z,81.00
2022-10-26T03:33:47.473Z,81.20
2022-10-26T03:36:16.517Z,81.74
2022-10-26T03:38:44.220Z,82.00
2022-10-26T03:41:11.929Z,82.00
2022-10-26T03:43:39.624Z,82.04
2022-10-26T03:46:07.481Z,82.28
2022-10-26T03:48:35.153Z,82.43
2022-10-26T03:51:04.543Z,82.20
2022-10-26T03:53:33.584Z,82.20
2022-10-26T03:56:01.280Z,82.35
2022-10-26T03:58:31.274Z,82.21
2022-10-26T04:00:58.929Z,82.28
2022-10-26T04:03:26.615Z,82.34
2022-10-26T04:05:54.309Z,82.30
2022-10-26T04:08:22.060Z,82.65
2022-10-26T04:10:53.934Z,82.27
2022-10-26T04:13:21.629Z,82.26
2022-10-26T04:15:49.410Z,82.29
2022-10-26T04:18:17.232Z,82.07
2022-10-26T04:20:45.524Z,82.33
2022-10-26T04:23:14.975Z,82.41
2022-10-26T04:25:44.140Z,82.32
2022-10-26T04:28:14.897Z,82.08
2022-10-26T04:30:42.724Z,81.93
2022-10-26T04:33:10.694Z,81.59
2022-10-26T04:35:38.490Z,82.00
2022-10-26T04:38:07.488Z,81.65
2022-10-26T04:40:35.929Z,81.57
2022-10-26T04:43:03.701Z,81.60
2022-10-26T04:45:32.826Z,81.67
2022-10-26T04:48:02.993Z,81.66
2022-10-26T04:50:30.761Z,81.67
2022-10-26T04:52:58.890Z,81.91
2022-10-26T04:55:26.929Z,81.96
2022-10-26T04:57:57.243Z,82.03
2022-10-26T05:00:30.018Z,82.11
2022-10-26T05:03:02.969Z,81.92
2022-10-26T05:05:32.077Z,81.96
2022-10-26T05:08:00.160Z,82.08
2022-10-26T05:10:27.899Z,81.83
2022-10-26T05:12:56.586Z,81.96
2022-10-26T05:15:24.697Z,82.06
2022-10-26T05:17:55.997Z,82.17
2022-10-26T05:20:29.343Z,81.96
2022-10-26T05:22:57.381Z,81.93
2022-10-26T05:25:25.110Z,81.64
2022-10-26T05:27:52.945Z,81.83
2022-10-26T05:30:20.697Z,81.84
2022-10-26T05:32:54.715Z,81.77
2022-10-26T05:35:22.416Z,82.28
2022-10-26T05:37:51.445Z,82.86
2022-10-26T05:40:19.191Z,82.41
2022-10-26T05:42:47.400Z,82.33
2022-10-26T05:45:17.163Z,82.21
2022-10-26T05:47:46.015Z,82.29
2022-10-26T05:50:16.276Z,82.58
2022-10-26T05:52:45.330Z,82.38
2022-10-26T05:55:16.060Z,82.42
2022-10-26T05:57:44.688Z,82.19
2022-10-26T06:00:17.441Z,82.39
2022-10-26T06:02:54.944Z,82.15
2022-10-26T06:05:25.205Z,82.23
2022-10-26T06:07:53.476Z,82.40
2022-10-26T06:10:23.354Z,82.53
2022-10-26T06:12:51.993Z,82.07
2022-10-26T06:15:21.441Z,82.32
2022-10-26T06:17:57.816Z,82.48
2022-10-26T06:20:37.578Z,82.15
2022-10-26T06:23:20.887Z,82.17
2022-10-26T06:25:57.986Z,82.60
2022-10-26T06:28:33.898Z,82.74
2022-10-26T06:31:02.874Z,82.82
2022-10-26T06:33:31.226Z,83.06
2022-10-26T06:36:07.081Z,83.46
2022-10-26T06:38:36.554Z,82.99
2022-10-26T06:41:06.365Z,82.72
2022-10-26T06:43:36.527Z,83.26
2022-10-26T06:46:12.063Z,83.46
2022-10-26T06:48:48.487Z,82.92
2022-10-26T06:51:17.354Z,83.01
2022-10-26T06:53:50.246Z,84.88
2022-10-26T06:56:19.433Z,84.14
2022-10-26T06:58:47.358Z,84.25
2022-10-26T07:01:15.421Z,84.82
2022-10-26T07:03:43.444Z,83.75
2022-10-26T07:06:11.243Z,84.04
2022-10-26T07:08:38.964Z,84.13
2022-10-26T07:11:06.904Z,83.73
2022-10-26T07:13:35.903Z,83.95
2022-10-26T07:16:04.532Z,83.87
2022-10-26T07:18:32.332Z,83.85
2022-10-26T07:21:00.104Z,83.86
2022-10-26T07:23:27.861Z,85.55
2022-10-26T07:25:55.566Z,85.57
2022-10-26T07:28:23.235Z,86.01
2022-10-26T07:30:56.063Z,89.49
2022-10-26T07:33:23.981Z,90.55
2022-10-26T07:35:52.780Z,90.94
2022-10-26T07:38:20.562Z,93.18
2022-10-26T07:40:50.008Z,93.26
2022-10-26T07:43:17.647Z,93.33
2022-10-26T07:45:45.311Z,93.90
2022-10-26T07:48:14.319Z,94.90
2022-10-26T07:50:42.019Z,94.43
2022-10-26T07:53:09.688Z,94.28
2022-10-26T07:55:37.333Z,95.05
2022-10-26T07:58:05.120Z,96.07
2022-10-26T08:00:32.862Z,95.70
2022-10-26T08:03:05.242Z,96.08
2022-10-26T08:05:34.226Z,97.46
2022-10-26T08:08:03.475Z,97.30
2022-10-26T08:10:31.337Z,98.40
2022-10-26T08:12:59.048Z,98.45
2022-10-26T08:15:26.720Z,98.15
2022-10-26T08:17:54.413Z,98.68
2022-10-26T08:20:22.237Z,99.24
2022-10-26T08:22:52.728Z,99.71
2022-10-26T08:25:21.533Z,99.28
2022-10-26T08:27:49.622Z,99.65
2022-10-26T08:30:19.373Z,99.88
2022-10-26T08:32:47.440Z,99.92
2022-10-26T08:35:15.757Z,99.88
2022-10-26T08:37:43.423Z,100.00
2022-10-26T08:40:16.812Z,100.00
2022-10-26T08:42:48.448Z,100.00
2022-10-26T08:45:30.538Z,100.00
2022-10-26T08:48:03.760Z,100.00
2022-10-26T08:50:34.060Z,100.00
2022-10-26T08:53:04.697Z,100.00
2022-10-26T08:55:40.501Z,100.00
2022-10-26T08:58:14.813Z,100.00
2022-10-26T09:00:42.942Z,100.00
2022-10-26T09:03:14.305Z,100.00
2022-10-26T09:05:51.816Z,100.00
2022-10-26T09:08:24.297Z,100.00
2022-10-26T09:10:57.585Z,100.00
2022-10-26T09:13:28.505Z,100.00
2022-10-26T09:16:01.423Z,100.00
2022-10-26T09:18:39.811Z,100.00
2022-10-26T09:21:17.219Z,100.00
2022-10-26T09:23:54.171Z,100.00
2022-10-26T09:26:30.330Z,100.00
2022-10-26T09:28:58.992Z,100.00
2022-10-26T09:31:26.897Z,100.00
2022-10-26T09:33:55.774Z,100.00
2022-10-26T09:36:23.765Z,100.00
2022-10-26T09:38:57.118Z,100.00
2022-10-26T09:41:31.813Z,100.00
2022-10-26T09:44:03.856Z,100.00
2022-10-26T09:46:34.620Z,100.00
2022-10-26T09:49:06.578Z,100.00
2022-10-26T09:51:34.979Z,100.00
2022-10-26T09:54:03.096Z,100.00
2022-10-26T09:56:32.712Z,100.00
2022-10-26T09:59:04.702Z,100.00
2022-10-26T10:01:36.888Z,100.00
2022-10-26T10:04:12.159Z,100.00
2022-10-26T10:06:40.008Z,99.99
2022-10-26T10:09:11.033Z,100.00
2022-10-26T10:11:42.000Z,99.80
2022-10-26T10:14:14.865Z,99.36
2022-10-26T10:16:43.464Z,99.26
2022-10-26T10:19:23.179Z,99.06
2022-10-26T10:21:52.276Z,99.94
2022-10-26T10:24:25.267Z,100.00
2022-10-26T10:27:00.449Z,99.45
2022-10-26T10:29:32.026Z,100.00
2022-10-26T10:32:00.947Z,99.97
2022-10-26T10:34:33.205Z,100.00
2022-10-26T10:37:03.017Z,99.68
2022-10-26T10:39:37.833Z,99.50
2022-10-26T10:42:17.964Z,99.59
2022-10-26T10:44:46.415Z,99.72
2022-10-26T10:47:21.785Z,99.27
2022-10-26T10:49:58.446Z,99.16
2022-10-26T10:52:27.656Z,99.32
2022-10-26T10:55:07.283Z,98.93
2022-10-26T10:57:40.693Z,99.30
2022-10-26T11:00:10.573Z,99.31
2022-10-26T11:03:06.339Z,99.08
2022-10-26T11:05:45.106Z,99.16
2022-10-26T11:08:18.637Z,99.33
2022-10-26T11:10:50.121Z,99.32
2022-10-26T11:13:23.097Z,99.72
2022-10-26T11:15:56.626Z,99.14
2022-10-26T11:18:27.831Z,98.07
2022-10-26T11:21:03.476Z,97.92
2022-10-26T11:23:36.806Z,98.73
2022-10-26T11:26:10.272Z,99.40
2022-10-26T11:28:42.516Z,98.44
2022-10-26T11:31:14.668Z,98.34
2022-10-26T11:33:46.729Z,98.53
2022-10-26T11:36:19.709Z,98.00
2022-10-26T11:38:57.296Z,97.58
2022-10-26T11:41:27.868Z,97.25
2022-10-26T11:44:02.046Z,97.41
2022-10-26T11:46:33.406Z,97.43
2022-10-26T11:49:05.917Z,96.67
2022-10-26T11:51:38.712Z,96.89
2022-10-26T11:54:11.194Z,96.56
2022-10-26T11:56:42.760Z,97.51
2022-10-26T11:59:16.377Z,96.79
2022-10-26T12:01:44.138Z,96.35
2022-10-26T12:04:12.358Z,96.59
2022-10-26T12:06:40.097Z,96.46
2022-10-26T12:09:11.210Z,96.39
2022-10-26T12:11:45.134Z,96.32
2022-10-26T12:14:20.960Z,96.06
2022-10-26T12:16:53.157Z,95.90
2022-10-26T12:19:26.073Z,95.25
2022-10-26T12:21:54.126Z,95.23
2022-10-26T12:24:29.960Z,95.49
2022-10-26T12:26:59.310Z,95.35
2022-10-26T12:29:39.964Z,95.15
2022-10-26T12:32:50.699Z,95.43
2022-10-26T12:35:40.576Z,94.87
2022-10-26T12:38:50.525Z,95.47
2022-10-26T12:41:23.613Z,94.88
2022-10-26T12:43:51.551Z,95.32
2022-10-26T12:46:45.379Z,94.12
2022-10-26T12:50:03.653Z,94.75
2022-10-26T12:52:47.060Z,94.32
2022-10-26T12:55:55.517Z,95.00
2022-10-26T12:58:39.560Z,95.08
2022-10-26T13:01:39.673Z,95.48
2022-10-26T13:04:29.476Z,95.33
2022-10-26T13:07:19.801Z,95.85
2022-10-26T13:09:58.247Z,94.30
2022-10-26T13:12:27.009Z,95.69
2022-10-26T13:15:02.959Z,95.11
2022-10-26T13:20:03.027Z,95.78
2022-10-26T13:22:31.778Z,95.95
2022-10-26T13:25:02.988Z,96.01
2022-10-26T13:27:42.309Z,96.78
2022-10-26T13:30:44.789Z,96.37
2022-10-26T13:33:24.740Z,96.75
2022-10-26T13:35:56.345Z,97.55
2022-10-26T13:38:25.635Z,97.46
2022-10-26T13:41:02.432Z,97.39
2022-10-26T13:43:30.144Z,96.82
2022-10-26T13:46:03.024Z,96.82
2022-10-26T13:48:36.929Z,97.36
2022-10-26T13:51:14.060Z,96.95
2022-10-26T13:53:44.818Z,97.03
2022-10-26T13:56:19.012Z,97.05
2022-10-26T13:58:50.859Z,96.65
2022-10-26T14:01:21.565Z,96.69
2022-10-26T14:03:49.699Z,96.30
2022-10-26T14:06:24.451Z,96.80
2022-10-26T14:08:53.855Z,96.66
2022-10-26T14:11:23.249Z,96.39
2022-10-26T14:13:51.673Z,96.35
2022-10-26T14:16:20.368Z,96.54
2022-10-26T14:18:49.546Z,96.59
2022-10-26T14:21:20.189Z,96.12
2022-10-26T14:23:50.193Z,96.06
2022-10-26T14:26:22.463Z,96.20
2022-10-26T14:28:51.525Z,96.10
2022-10-26T14:31:24.644Z,96.54
2022-10-26T14:33:52.931Z,96.08
2022-10-26T14:36:24.281Z,96.22
2022-10-26T14:38:56.110Z,96.25
2022-10-26T14:41:24.386Z,96.14
2022-10-26T14:43:52.124Z,96.27
2022-10-26T14:46:20.925Z,95.92
2022-10-26T14:48:53.821Z,96.45
2022-10-26T14:51:27.577Z,96.99
2022-10-26T14:53:57.893Z,96.76
2022-10-26T14:56:29.774Z,96.47
2022-10-26T14:58:58.085Z,95.83
2022-10-26T15:01:36.229Z,95.67
2022-10-26T15:04:05.420Z,95.64
2022-10-26T15:06:39.078Z,95.75
2022-10-26T15:09:07.541Z,95.37
2022-10-26T15:11:36.296Z,95.12
2022-10-26T15:14:04.110Z,94.88
2022-10-26T15:16:34.276Z,95.21
2022-10-26T15:19:09.181Z,95.22
2022-10-26T15:21:40.393Z,95.01
2022-10-26T15:24:24.616Z,94.87
2022-10-26T15:26:52.472Z,95.13
2022-10-26T15:29:40.337Z,95.32
2022-10-26T15:32:21.017Z,95.51
2022-10-26T15:34:50.898Z,95.38
2022-10-26T15:37:20.195Z,95.90
2022-10-26T15:39:47.890Z,95.79
2022-10-26T15:42:15.649Z,95.60
2022-10-26T15:44:43.373Z,95.67
2022-10-26T15:47:18.252Z,95.96
2022-10-26T15:49:45.921Z,95.74
2022-10-26T15:52:13.898Z,95.49
2022-10-26T15:54:42.892Z,95.49
2022-10-26T15:57:15.473Z,95.88
2022-10-26T15:59:45.617Z,95.73
2022-10-26T16:02:14.885Z,96.18
2022-10-26T16:04:42.667Z,96.46
2022-10-26T16:07:13.716Z,96.06
2022-10-26T16:09:44.145Z,96.55
2022-10-26T16:12:12.220Z,96.33
2022-10-26T16:15:05.191Z,96.24
2022-10-26T16:17:27.893Z,95.70
2022-10-26T16:19:55.588Z,96.35
2022-10-26T16:22:23.293Z,96.43
2022-10-26T16:24:52.292Z,96.59
2022-10-26T16:27:19.964Z,96.53
2022-10-26T16:29:47.665Z,95.94
2022-10-26T16:32:15.348Z,95.81
2022-10-26T16:34:43.047Z,95.84
2022-10-26T16:37:10.741Z,95.77
2022-10-26T16:39:38.431Z,96.06
2022-10-26T16:42:07.557Z,96.14
2022-10-26T16:44:36.518Z,96.12
2022-10-26T16:47:04.471Z,96.07
2022-10-26T16:49:32.133Z,95.47
2022-10-26T16:51:59.785Z,95.83
2022-10-26T16:54:30.867Z,95.87
2022-10-26T16:56:58.560Z,95.99
2022-10-26T16:59:27.986Z,96.00
2022-10-26T17:01:55.800Z,96.03
2022-10-26T17:04:23.622Z,96.21
2022-10-26T17:06:51.399Z,96.07
2022-10-26T17:09:19.065Z,95.70
2022-10-26T17:11:46.780Z,95.64
2022-10-26T17:14:14.532Z,94.95
2022-10-26T17:16:43.579Z,95.37
2022-10-26T17:19:11.833Z,95.28
2022-10-26T17:21:39.509Z,95.60
2022-10-26T17:24:07.736Z,95.33
2022-10-26T17:26:35.439Z,95.13
2022-10-26T17:29:04.987Z,95.02
2022-10-26T17:31:32.779Z,95.28
2022-10-26T17:34:02.993Z,94.81
2022-10-26T17:36:31.591Z,94.44
2022-10-26T17:39:00.704Z,94.67
2022-10-26T17:41:30.033Z,95.00
2022-10-26T17:43:57.841Z,94.80
2022-10-26T17:46:27.205Z,94.46
2022-10-26T17:48:55.790Z,94.41
2022-10-26T17:51:25.273Z,94.61
2022-10-26T17:53:53.361Z,94.54
2022-10-26T17:56:23.295Z,93.88
2022-10-26T17:58:54.712Z,93.70
2022-10-26T18:01:22.840Z,93.37
2022-10-26T18:03:51.067Z,93.75
2022-10-26T18:06:19.116Z,93.79
2022-10-26T18:08:48.539Z,94.05
2022-10-26T18:11:22.514Z,93.68
2022-10-26T18:13:54.288Z,93.61
2022-10-26T18:16:23.003Z,93.48
2022-10-26T18:18:57.285Z,93.38
2022-10-26T18:21:25.012Z,93.32
2022-10-26T18:23:54.809Z,93.33
2022-10-26T18:26:24.069Z,93.51
2022-10-26T18:28:51.795Z,92.83
2022-10-26T18:31:21.309Z,93.37
2022-10-26T18:33:49.153Z,93.15
2022-10-26T18:36:18.552Z,93.02
2022-10-26T18:38:47.716Z,93.09
2022-10-26T18:41:18.566Z,92.69
2022-10-26T18:43:49.243Z,92.90
2022-10-26T18:46:21.599Z,92.98
2022-10-26T18:48:49.697Z,92.97
2022-10-26T18:51:19.917Z,92.66
2022-10-26T18:53:48.020Z,92.67
2022-10-26T18:56:18.321Z,92.62
2022-10-26T18:58:48.125Z,92.42
2022-10-26T19:01:17.553Z,92.59
2022-10-26T19:03:45.461Z,92.46
2022-10-26T19:06:14.808Z,92.78
2022-10-26T19:08:42.693Z,92.30
2022-10-26T19:11:11.855Z,92.41
2022-10-26T19:13:41.501Z,92.44
2022-10-26T19:16:17.261Z,92.88
2022-10-26T19:18:49.584Z,92.69
2022-10-26T19:21:19.758Z,92.29
2022-10-26T19:23:50.021Z,92.32
2022-10-26T19:26:19.014Z,92.08
2022-10-26T19:28:49.050Z,92.20
2022-10-26T19:31:16.694Z,92.33
2022-10-26T19:33:44.380Z,92.17
2022-10-26T19:36:12.980Z,92.26
2022-10-26T19:38:40.765Z,91.96
2022-10-26T19:41:09.965Z,91.71
2022-10-26T19:43:38.302Z,91.93
2022-10-26T19:46:09.313Z,91.98
2022-10-26T19:48:37.089Z,92.01
2022-10-26T19:51:05.541Z,91.86
2022-10-26T19:53:33.241Z,91.73
2022-10-26T19:56:02.037Z,91.70
2022-10-26T19:58:31.622Z,91.55
2022-10-26T20:01:00.531Z,91.27
2022-10-26T20:03:29.928Z,91.87
2022-10-26T20:05:58.094Z,91.39
2022-10-26T20:08:26.201Z,91.31
2022-10-26T20:10:55.149Z,91.18
2022-10-26T20:13:24.488Z,91.59
2022-10-26T20:15:52.649Z,91.41
2022-10-26T20:18:20.977Z,91.79
2022-10-26T20:20:50.013Z,92.26
2022-10-26T20:23:17.691Z,93.02
2022-10-26T20:25:46.665Z,92.70
2022-10-26T20:28:14.927Z,93.34
2022-10-26T20:30:43.534Z,92.78
2022-10-26T20:33:11.897Z,94.26
2022-10-26T20:35:39.910Z,94.95
2022-10-26T20:38:17.466Z,94.76
2022-10-26T20:40:45.860Z,95.44
2022-10-26T20:43:17.960Z,95.46
2022-10-26T20:45:46.281Z,95.40
2022-10-26T20:48:14.580Z,95.74
2022-10-26T20:50:43.956Z,96.45
2022-10-26T20:53:20.012Z,96.74
2022-10-26T20:55:52.086Z,95.66
2022-10-26T20:58:22.742Z,95.33
2022-10-26T21:00:54.486Z,94.96
2022-10-26T21:03:22.193Z,94.03
2022-10-26T21:05:49.890Z,94.05
2022-10-26T21:08:19.006Z,93.26
2022-10-26T21:10:46.699Z,93.21
2022-10-26T21:13:14.423Z,92.80
2022-10-26T21:15:42.221Z,92.87
2022-10-26T21:18:10.004Z,92.58
2022-10-26T21:20:38.300Z,92.26
2022-10-26T21:23:05.992Z,92.55
2022-10-26T21:25:36.215Z,92.28
2022-10-26T21:28:06.674Z,92.04
2022-10-26T21:30:34.567Z,92.31
2022-10-26T21:33:04.050Z,92.32
2022-10-26T21:35:31.712Z,92.28
2022-10-26T21:37:59.368Z,91.94
2022-10-26T21:40:27.141Z,92.05
2022-10-26T21:42:56.165Z,91.75
2022-10-26T21:45:23.902Z,91.94
2022-10-26T21:47:52.582Z,91.71
2022-10-26T21:50:20.509Z,91.85
2022-10-26T21:52:48.393Z,92.07
2022-10-26T21:55:16.235Z,91.74
2022-10-26T21:57:43.901Z,92.18
2022-10-26T22:00:14.582Z,92.15
2022-10-26T22:02:42.253Z,92.57
2022-10-26T22:05:10.101Z,92.33
2022-10-26T22:07:37.769Z,91.76
2022-10-26T22:10:11.128Z,91.90
2022-10-26T22:12:39.198Z,91.71
2022-10-26T22:15:07.937Z,91.94
2022-10-26T22:17:39.534Z,91.66
2022-10-26T22:20:08.773Z,91.89
2022-10-26T22:22:39.069Z,91.92
2022-10-26T22:25:07.102Z,92.25
2022-10-26T22:27:34.798Z,92.33
2022-10-26T22:30:07.816Z,91.66
2022-10-26T22:32:35.471Z,92.13
2022-10-26T22:35:28.370Z,93.34
2022-10-26T22:37:55.362Z,94.18
2022-10-26T22:40:23.042Z,94.95
2022-10-26T22:42:51.883Z,94.19
2022-10-26T22:45:19.921Z,94.31
2022-10-26T22:47:47.654Z,93.90
2022-10-26T22:50:16.862Z,93.94
2022-10-26T22:52:44.542Z,93.39
2022-10-26T22:55:12.216Z,93.62
2022-10-26T22:57:39.903Z,93.57
2022-10-26T23:00:09.104Z,93.26
2022-10-26T23:02:37.492Z,95.73
2022-10-26T23:05:05.908Z,95.17
2022-10-26T23:07:34.964Z,95.32
2022-10-26T23:10:04.552Z,95.80
2022-10-26T23:12:32.264Z,95.04
2022-10-26T23:15:00.069Z,95.37
2022-10-26T23:17:27.769Z,96.00
2022-10-26T23:19:55.456Z,95.62
2022-10-26T23:22:23.344Z,96.76
2022-10-26T23:24:52.513Z,96.33
2022-10-26T23:27:20.211Z,95.67
2022-10-26T23:29:47.944Z,94.39
2022-10-26T23:32:15.640Z,95.96
2022-10-26T23:34:43.360Z,96.13
2022-10-26T23:37:11.068Z,94.81
2022-10-26T23:39:38.743Z,95.48
2022-10-26T23:42:07.767Z,96.05
2022-10-26T23:44:35.413Z,94.80
2022-10-26T23:47:03.093Z,94.28
2022-10-26T23:49:30.845Z,94.57
2022-10-26T23:51:58.536Z,95.58
2022-10-26T23:54:26.261Z,96.54
2022-10-26T23:56:53.949Z,97.91
2022-10-26T23:59:23.029Z,97.87
